Terminal Aerodrome Forecast
Issued by NWS Quad Cities IA IL

Home | Current Version | Previous Version | Text Only | Print | Product List | Glossary On
Versions: 1 2 3 4 5 6 7 8 9 10 11 12 13 14 15 16
000
FTUS43 KDVN 300520
TAFMLI
TAF
KMLI 300520Z 3006/3106 26004KT P6SM SKC
     FM301300 28007KT P6SM SKC
     FM301800 28011G16KT P6SM FEW070 FEW200
     FM310000 28006KT P6SM FEW200=

USA.gov is the U.S. government's official web portal to all federal, state and local government web resources and services.